createdAt,value
2022-09-27T00:01:08.778Z,9.90
2022-09-27T00:03:36.715Z,9.90
2022-09-27T00:06:07.770Z,9.90
2022-09-27T00:08:36.494Z,9.90
2022-09-27T00:11:13.705Z,10.00
2022-09-27T00:13:41.271Z,10.00
2022-09-27T00:16:10.401Z,10.00
2022-09-27T00:18:37.792Z,10.00
2022-09-27T00:21:13.707Z,10.00
2022-09-27T00:23:41.776Z,9.90
2022-09-27T00:26:13.090Z,9.90
2022-09-27T00:28:40.716Z,10.00
2022-09-27T00:31:22.832Z,9.90
2022-09-27T00:33:52.307Z,9.90
2022-09-27T00:36:21.249Z,10.00
2022-09-27T00:38:48.790Z,9.90
2022-09-27T00:41:20.419Z,9.90
2022-09-27T00:43:51.591Z,9.90
2022-09-27T00:46:41.317Z,9.90
2022-09-27T00:49:26.464Z,10.00
2022-09-27T00:51:55.865Z,10.00
2022-09-27T00:54:26.450Z,10.00
2022-09-27T00:56:54.311Z,10.00
2022-09-27T00:59:33.976Z,10.00
2022-09-27T01:02:04.147Z,9.90
2022-09-27T01:04:33.159Z,10.00
2022-09-27T01:07:00.822Z,9.90
2022-09-27T01:09:29.129Z,9.90
2022-09-27T01:12:26.911Z,10.00
2022-09-27T01:15:14.500Z,10.00
2022-09-27T01:18:17.663Z,10.10
2022-09-27T01:21:16.017Z,10.00
2022-09-27T01:24:18.694Z,10.00
2022-09-27T01:27:04.777Z,10.00
2022-09-27T01:29:38.290Z,10.00
2022-09-27T01:32:20.043Z,10.00
2022-09-27T01:34:59.343Z,10.00
2022-09-27T01:37:29.375Z,10.10
2022-09-27T01:40:04.484Z,10.00
2022-09-27T01:42:55.138Z,10.00
2022-09-27T01:45:36.929Z,10.00
2022-09-27T01:48:23.926Z,10.00
2022-09-27T01:51:26.881Z,10.00
2022-09-27T01:54:01.060Z,10.10
2022-09-27T01:56:50.533Z,10.00
2022-09-27T01:59:33.778Z,9.90
2022-09-27T02:02:20.370Z,9.80
2022-09-27T02:05:14.207Z,9.70
2022-09-27T02:07:56.515Z,9.60
2022-09-27T02:10:29.719Z,9.60
2022-09-27T02:13:01.666Z,9.60
2022-09-27T02:15:48.409Z,9.60
2022-09-27T02:18:33.986Z,9.60
2022-09-27T02:21:07.575Z,9.50
2022-09-27T02:23:46.206Z,9.30
2022-09-27T02:26:35.283Z,9.30
2022-09-27T02:29:15.146Z,9.20
2022-09-27T02:31:49.516Z,9.20
2022-09-27T02:34:24.065Z,9.10
2022-09-27T02:36:53.463Z,9.00
2022-09-27T02:39:21.739Z,8.90
2022-09-27T02:41:58.265Z,8.80
2022-09-27T02:44:27.343Z,8.80
2022-09-27T02:47:21.815Z,8.70
2022-09-27T02:50:28.337Z,8.60
2022-09-27T02:53:30.023Z,8.60
2022-09-27T02:56:47.601Z,8.50
2022-09-27T02:59:46.518Z,8.40
2022-09-27T03:02:59.469Z,8.40
2022-09-27T03:05:44.089Z,8.40
2022-09-27T03:08:12.722Z,8.30
2022-09-27T03:10:40.366Z,8.30
2022-09-27T03:13:07.988Z,8.30
2022-09-27T03:15:35.569Z,8.40
2022-09-27T03:18:03.392Z,8.40
2022-09-27T03:21:00.091Z,8.30
2022-09-27T03:23:28.369Z,8.30
2022-09-27T03:25:55.886Z,8.40
2022-09-27T03:28:23.307Z,8.30
2022-09-27T03:30:50.820Z,8.20
2022-09-27T03:33:38.123Z,8.20
2022-09-27T03:36:12.204Z,8.20
2022-09-27T03:38:39.690Z,8.20
2022-09-27T03:41:10.492Z,8.20
2022-09-27T03:43:38.752Z,8.20
2022-09-27T03:46:06.450Z,8.30
2022-09-27T03:48:33.962Z,8.30
2022-09-27T03:51:01.379Z,8.30
2022-09-27T03:53:29.500Z,8.40
2022-09-27T03:55:57.208Z,8.50
2022-09-27T03:58:24.913Z,8.50
2022-09-27T04:00:52.247Z,8.50
2022-09-27T04:03:19.841Z,8.40
2022-09-27T04:06:06.347Z,8.40
2022-09-27T04:08:43.356Z,8.40
2022-09-27T04:11:11.686Z,8.30
2022-09-27T04:13:41.754Z,8.30
2022-09-27T04:16:09.139Z,8.30
2022-09-27T04:19:05.968Z,8.20
2022-09-27T04:21:56.246Z,8.20
2022-09-27T04:24:24.100Z,8.10
2022-09-27T04:27:08.961Z,8.10
2022-09-27T04:29:43.091Z,8.10
2022-09-27T04:32:26.275Z,8.10
2022-09-27T04:35:32.016Z,8.10
2022-09-27T04:38:00.218Z,8.00
2022-09-27T04:40:27.937Z,7.90
2022-09-27T04:42:56.566Z,7.90
2022-09-27T04:45:23.887Z,7.90
2022-09-27T04:47:51.480Z,7.90
2022-09-27T04:50:20.096Z,8.00
2022-09-27T04:53:02.515Z,7.90
2022-09-27T04:55:29.963Z,7.90
2022-09-27T04:57:57.565Z,8.00
2022-09-27T05:00:25.161Z,8.10
2022-09-27T05:02:58.882Z,8.10
2022-09-27T05:05:46.619Z,8.10
2022-09-27T05:08:14.159Z,8.10
2022-09-27T05:11:00.607Z,8.20
2022-09-27T05:13:28.055Z,8.20
2022-09-27T05:15:55.416Z,8.20
2022-09-27T05:18:46.123Z,8.30
2022-09-27T05:21:31.899Z,8.30
2022-09-27T05:24:01.078Z,8.30
2022-09-27T05:26:28.510Z,8.40
2022-09-27T05:28:55.891Z,8.40
2022-09-27T05:31:23.597Z,8.30
2022-09-27T05:33:51.199Z,8.40
2022-09-27T05:36:39.119Z,8.30
2022-09-27T05:39:07.101Z,8.40
2022-09-27T05:41:34.793Z,8.30
2022-09-27T05:44:02.644Z,8.40
2022-09-27T05:46:30.113Z,8.40
2022-09-27T05:48:57.658Z,8.50
2022-09-27T05:51:25.057Z,8.50
2022-09-27T05:53:52.425Z,8.50
2022-09-27T05:56:26.233Z,8.50
2022-09-27T05:59:15.476Z,8.60
2022-09-27T06:02:12.902Z,8.60
2022-09-27T06:04:59.077Z,8.60
2022-09-27T06:07:49.603Z,8.70
2022-09-27T06:10:22.791Z,8.80
2022-09-27T06:12:50.824Z,8.80
2022-09-27T06:15:33.918Z,8.80
2022-09-27T06:18:17.927Z,8.90
2022-09-27T06:20:47.959Z,8.90
2022-09-27T06:23:25.255Z,8.90
2022-09-27T06:25:55.025Z,8.90
2022-09-27T06:28:28.180Z,8.90
2022-09-27T06:30:57.339Z,8.90
2022-09-27T06:33:37.254Z,8.90
2022-09-27T06:36:06.996Z,9.00
2022-09-27T06:38:36.642Z,9.00
2022-09-27T06:41:18.078Z,9.00
2022-09-27T06:44:05.763Z,9.10
2022-09-27T06:46:47.930Z,9.10
2022-09-27T06:49:33.994Z,9.20
2022-09-27T06:52:01.714Z,9.30
2022-09-27T06:54:29.503Z,9.40
2022-09-27T06:57:00.268Z,9.40
2022-09-27T06:59:48.309Z,9.50
2022-09-27T07:02:34.292Z,9.50
2022-09-27T07:05:21.877Z,9.50
2022-09-27T07:08:21.869Z,9.60
2022-09-27T07:10:50.565Z,9.60
2022-09-27T07:13:18.009Z,9.60
2022-09-27T07:15:45.372Z,9.60
2022-09-27T07:18:15.312Z,9.60
2022-09-27T07:20:42.856Z,9.60
2022-09-27T07:23:11.529Z,9.70
2022-09-27T07:25:38.874Z,9.70
2022-09-27T07:28:09.935Z,9.70
2022-09-27T07:30:37.765Z,9.80
2022-09-27T07:33:06.594Z,9.90
2022-09-27T07:35:35.123Z,10.10
2022-09-27T07:38:03.677Z,10.40
2022-09-27T07:40:31.140Z,10.40
2022-09-27T07:42:59.242Z,10.50
2022-09-27T07:45:26.847Z,10.50
2022-09-27T07:48:23.411Z,10.50
2022-09-27T07:51:07.739Z,10.60
2022-09-27T07:54:08.657Z,10.60
2022-09-27T07:56:36.454Z,10.60
2022-09-27T07:59:05.834Z,10.70
2022-09-27T08:01:34.570Z,10.70
2022-09-27T08:04:02.262Z,10.60
2022-09-27T08:06:29.954Z,10.60
2022-09-27T08:08:59.572Z,10.60
2022-09-27T08:11:28.429Z,10.60
2022-09-27T08:13:57.056Z,10.60
2022-09-27T08:16:29.468Z,10.50
2022-09-27T08:19:16.015Z,10.40
2022-09-27T08:22:01.835Z,10.20
2022-09-27T08:24:35.545Z,10.10
2022-09-27T08:27:11.525Z,9.90
2022-09-27T08:29:47.904Z,9.80
2022-09-27T08:32:20.816Z,9.80
2022-09-27T08:34:50.768Z,9.80
2022-09-27T08:37:18.102Z,9.80
2022-09-27T08:39:47.952Z,9.90
2022-09-27T08:42:43.104Z,10.00
2022-09-27T08:45:10.993Z,10.00
2022-09-27T08:47:44.313Z,9.90
2022-09-27T08:50:29.983Z,9.80
2022-09-27T08:53:22.034Z,9.80
2022-09-27T08:55:57.769Z,10.00
2022-09-27T08:58:30.257Z,10.10
2022-09-27T09:01:08.816Z,10.30
2022-09-27T09:03:52.474Z,10.50
2022-09-27T09:06:27.568Z,10.60
2022-09-27T09:09:45.436Z,11.00
2022-09-27T09:12:49.250Z,11.10
2022-09-27T09:16:06.061Z,11.20
2022-09-27T09:19:11.267Z,11.40
2022-09-27T09:22:26.051Z,12.00
2022-09-27T09:25:07.403Z,12.20
2022-09-27T09:28:01.564Z,12.30
2022-09-27T09:31:08.498Z,12.80
2022-09-27T09:34:06.902Z,13.10
2022-09-27T09:36:46.267Z,12.90
2022-09-27T09:39:28.214Z,13.20
2022-09-27T09:42:16.683Z,13.60
2022-09-27T09:45:01.582Z,13.10
2022-09-27T09:47:55.272Z,13.20
2022-09-27T09:50:27.516Z,12.80
2022-09-27T09:53:29.400Z,12.70
2022-09-27T09:56:05.245Z,12.50
2022-09-27T09:58:49.508Z,12.50
2022-09-27T10:01:23.486Z,12.40
2022-09-27T10:03:51.215Z,12.40
2022-09-27T10:06:19.514Z,12.20
2022-09-27T10:08:47.645Z,12.20
2022-09-27T10:11:42.325Z,12.20
2022-09-27T10:14:16.855Z,12.10
2022-09-27T10:16:52.573Z,11.90
2022-09-27T10:19:28.411Z,11.70
2022-09-27T10:22:03.260Z,11.70
2022-09-27T10:25:05.636Z,11.70
2022-09-27T10:27:47.474Z,11.70
2022-09-27T10:30:32.061Z,11.60
2022-09-27T10:33:13.972Z,11.80
2022-09-27T10:35:49.411Z,12.00
2022-09-27T10:38:36.036Z,12.30
2022-09-27T10:41:41.512Z,12.40
2022-09-27T10:44:28.614Z,12.80
2022-09-27T10:47:22.850Z,12.90
2022-09-27T10:50:06.763Z,13.10
2022-09-27T10:53:19.262Z,13.10
2022-09-27T10:55:55.772Z,13.40
2022-09-27T10:58:34.741Z,13.30
2022-09-27T11:01:09.790Z,13.30
2022-09-27T11:03:56.584Z,13.50
2022-09-27T11:06:23.910Z,13.60
2022-09-27T11:08:53.762Z,13.70
2022-09-27T11:11:27.805Z,13.80
2022-09-27T11:14:17.950Z,13.80
2022-09-27T11:17:15.699Z,13.80
2022-09-27T11:20:04.549Z,13.80
2022-09-27T11:22:43.989Z,13.30
2022-09-27T11:25:31.866Z,13.00
2022-09-27T11:28:18.531Z,12.70
2022-09-27T11:31:17.648Z,12.90
2022-09-27T11:33:59.059Z,13.10
2022-09-27T11:37:07.448Z,12.90
2022-09-27T11:39:53.394Z,12.60
2022-09-27T11:42:26.787Z,12.60
2022-09-27T11:45:34.280Z,12.40
2022-09-27T11:48:22.345Z,12.50
2022-09-27T11:51:19.643Z,13.30
2022-09-27T11:54:03.968Z,13.20
2022-09-27T11:56:54.075Z,12.80
2022-09-27T11:59:41.158Z,12.60
2022-09-27T12:02:30.211Z,12.40
2022-09-27T12:05:01.808Z,11.90
2022-09-27T12:07:40.804Z,11.90
2022-09-27T12:10:13.838Z,12.20
2022-09-27T12:12:47.572Z,12.60
2022-09-27T12:15:19.159Z,12.70
2022-09-27T12:17:50.295Z,12.50
2022-09-27T12:20:28.502Z,12.40
2022-09-27T12:23:17.731Z,12.20
2022-09-27T12:26:39.418Z,12.60
2022-09-27T12:29:18.626Z,12.90
2022-09-27T12:32:02.882Z,12.90
2022-09-27T12:34:34.170Z,12.70
2022-09-27T12:37:17.166Z,12.80
2022-09-27T12:39:55.633Z,12.90
2022-09-27T12:42:59.263Z,13.20
2022-09-27T12:46:10.563Z,13.20
2022-09-27T12:49:04.824Z,13.50
2022-09-27T12:51:37.624Z,13.50
2022-09-27T12:54:27.165Z,13.50
2022-09-27T12:57:27.026Z,13.30
2022-09-27T13:00:21.336Z,13.10
2022-09-27T13:03:15.366Z,13.00
2022-09-27T13:05:59.732Z,12.90
2022-09-27T13:08:54.133Z,13.00
2022-09-27T13:11:36.976Z,13.20
2022-09-27T13:14:05.923Z,13.30
2022-09-27T13:16:44.244Z,13.60
2022-09-27T13:19:39.567Z,13.70
2022-09-27T13:22:11.318Z,13.40
2022-09-27T13:25:00.561Z,13.50
2022-09-27T13:27:54.007Z,13.40
2022-09-27T13:30:36.326Z,13.20
2022-09-27T13:33:10.471Z,13.20
2022-09-27T13:36:21.685Z,13.30
2022-09-27T13:39:11.662Z,13.50
2022-09-27T13:42:07.207Z,13.70
2022-09-27T13:44:54.048Z,14.00
2022-09-27T13:47:24.264Z,14.40
2022-09-27T13:49:57.678Z,14.40
2022-09-27T13:52:44.813Z,14.60
2022-09-27T13:55:40.357Z,14.20
2022-09-27T13:58:24.037Z,14.00
2022-09-27T14:00:54.794Z,13.70
2022-09-27T14:04:14.190Z,13.40
2022-09-27T14:06:49.022Z,13.10
2022-09-27T14:09:37.513Z,12.90
2022-09-27T14:12:19.200Z,12.80
2022-09-27T14:14:49.467Z,12.60
2022-09-27T14:17:17.311Z,12.80
2022-09-27T14:19:46.073Z,12.90
2022-09-27T14:22:17.841Z,13.20
2022-09-27T14:24:57.887Z,13.30
2022-09-27T14:27:38.730Z,13.50
2022-09-27T14:30:28.784Z,13.80
2022-09-27T14:33:30.384Z,14.00
2022-09-27T14:36:23.794Z,13.90
2022-09-27T14:38:53.024Z,13.60
2022-09-27T14:41:35.370Z,13.40
2022-09-27T14:44:02.532Z,13.20
2022-09-27T14:46:31.896Z,13.00
2022-09-27T14:49:11.275Z,13.10
2022-09-27T14:51:38.600Z,13.10
2022-09-27T14:54:07.795Z,13.00
2022-09-27T14:56:39.843Z,12.70
2022-09-27T14:59:22.382Z,12.50
2022-09-27T15:01:51.274Z,12.10
2022-09-27T15:04:20.407Z,11.80
2022-09-27T15:06:49.490Z,11.40
2022-09-27T15:09:18.419Z,10.80
2022-09-27T15:12:00.753Z,10.40
2022-09-27T15:14:32.948Z,10.10
2022-09-27T15:17:05.638Z,10.10
2022-09-27T15:19:34.465Z,10.10
2022-09-27T15:22:31.657Z,10.00
2022-09-27T15:25:19.401Z,10.00
2022-09-27T15:27:55.365Z,10.00
2022-09-27T15:30:32.924Z,10.10
2022-09-27T15:33:01.451Z,10.10
2022-09-27T15:35:34.875Z,10.30
2022-09-27T15:38:20.821Z,10.30
2022-09-27T15:40:48.537Z,10.20
2022-09-27T15:43:30.069Z,10.10
2022-09-27T15:46:03.579Z,9.90
2022-09-27T15:48:37.495Z,9.80
2022-09-27T15:51:40.968Z,9.80
2022-09-27T15:54:08.270Z,9.80
2022-09-27T15:56:36.536Z,9.80
2022-09-27T15:59:03.952Z,9.80
2022-09-27T16:01:31.318Z,9.80
2022-09-27T16:04:01.934Z,9.70
2022-09-27T16:06:29.398Z,9.70
2022-09-27T16:08:56.690Z,9.70
2022-09-27T16:11:23.995Z,9.70
2022-09-27T16:13:52.879Z,9.80
2022-09-27T16:16:21.716Z,9.80
2022-09-27T16:18:49.233Z,9.80
2022-09-27T16:21:16.600Z,9.90
2022-09-27T16:23:43.954Z,9.90
2022-09-27T16:26:11.190Z,9.90
2022-09-27T16:28:38.558Z,10.00
2022-09-27T16:31:07.418Z,10.10
2022-09-27T16:33:35.720Z,10.20
2022-09-27T16:36:09.148Z,10.20
2022-09-27T16:38:36.500Z,10.20
2022-09-27T16:41:04.202Z,10.20
2022-09-27T16:43:32.231Z,10.20
2022-09-27T16:46:09.267Z,10.10
2022-09-27T16:48:36.850Z,10.10
2022-09-27T16:51:24.800Z,10.00
2022-09-27T16:53:52.215Z,10.00
2022-09-27T16:56:20.332Z,9.90
2022-09-27T16:58:47.931Z,9.80
2022-09-27T17:01:18.870Z,9.70
2022-09-27T17:03:54.448Z,9.70
2022-09-27T17:06:24.463Z,9.60
2022-09-27T17:08:51.842Z,9.60
2022-09-27T17:11:20.478Z,9.50
2022-09-27T17:13:49.312Z,9.50
2022-09-27T17:16:17.123Z,9.50
2022-09-27T17:18:45.258Z,9.50
2022-09-27T17:21:12.613Z,9.50
2022-09-27T17:23:39.966Z,9.40
2022-09-27T17:26:14.106Z,9.40
2022-09-27T17:28:42.661Z,9.40
2022-09-27T17:31:12.046Z,9.40
2022-09-27T17:33:46.100Z,9.40
2022-09-27T17:36:22.653Z,9.40
2022-09-27T17:38:51.397Z,9.40
2022-09-27T17:41:27.111Z,9.40
2022-09-27T17:43:59.714Z,9.40
2022-09-27T17:46:35.353Z,9.40
2022-09-27T17:49:22.016Z,9.40
2022-09-27T17:51:51.508Z,9.40
2022-09-27T17:54:20.398Z,9.40
2022-09-27T17:56:48.061Z,9.40
2022-09-27T17:59:16.585Z,9.40
2022-09-27T18:01:46.307Z,9.40
2022-09-27T18:04:16.576Z,9.40
2022-09-27T18:06:46.195Z,9.40
2022-09-27T18:09:16.636Z,9.40
2022-09-27T18:11:44.838Z,9.40
2022-09-27T18:14:12.634Z,9.40
2022-09-27T18:16:43.802Z,9.40
2022-09-27T18:19:14.459Z,9.40
2022-09-27T18:21:42.004Z,9.40
2022-09-27T18:24:10.682Z,9.30
2022-09-27T18:26:38.929Z,9.40
2022-09-27T18:29:14.640Z,9.40
2022-09-27T18:31:47.479Z,9.40
2022-09-27T18:34:17.058Z,9.30
2022-09-27T18:36:44.715Z,9.30
2022-09-27T18:39:15.777Z,9.30
2022-09-27T18:41:43.321Z,9.30
2022-09-27T18:44:13.141Z,9.30
2022-09-27T18:46:40.628Z,9.30
2022-09-27T18:49:10.574Z,9.30
2022-09-27T18:51:42.224Z,9.30
2022-09-27T18:54:21.126Z,9.30
2022-09-27T18:56:50.521Z,9.40
2022-09-27T18:59:20.687Z,9.30
2022-09-27T19:01:48.088Z,9.30
2022-09-27T19:04:23.907Z,9.30
2022-09-27T19:06:53.215Z,9.30
2022-09-27T19:09:20.904Z,9.40
2022-09-27T19:11:48.732Z,9.40
2022-09-27T19:14:19.693Z,9.50
2022-09-27T19:16:48.128Z,9.50
2022-09-27T19:19:16.970Z,9.40
2022-09-27T19:21:44.654Z,9.40
2022-09-27T19:24:13.771Z,9.30
2022-09-27T19:26:41.497Z,9.40
2022-09-27T19:29:08.826Z,9.30
2022-09-27T19:31:36.315Z,9.30
2022-09-27T19:34:04.050Z,9.20
2022-09-27T19:36:31.318Z,9.10
2022-09-27T19:38:59.121Z,9.10
2022-09-27T19:41:27.066Z,9.10
2022-09-27T19:43:55.554Z,9.00
2022-09-27T19:46:24.177Z,9.00
2022-09-27T19:48:52.401Z,8.90
2022-09-27T19:51:25.418Z,8.90
2022-09-27T19:53:53.270Z,8.90
2022-09-27T19:56:21.347Z,8.90
2022-09-27T19:58:49.458Z,8.90
2022-09-27T20:01:20.273Z,9.00
2022-09-27T20:03:49.999Z,9.00
2022-09-27T20:06:19.520Z,8.90
2022-09-27T20:08:50.681Z,8.80
2022-09-27T20:11:20.761Z,8.80
2022-09-27T20:13:48.410Z,8.70
2022-09-27T20:16:19.039Z,8.60
2022-09-27T20:18:48.464Z,8.60
2022-09-27T20:21:17.065Z,8.50
2022-09-27T20:23:47.596Z,8.50
2022-09-27T20:26:16.320Z,8.40
2022-09-27T20:28:46.262Z,8.40
2022-09-27T20:31:17.100Z,8.40
2022-09-27T20:33:46.489Z,8.40
2022-09-27T20:36:50.664Z,8.40
2022-09-27T20:39:18.162Z,8.40
2022-09-27T20:41:46.469Z,8.30
2022-09-27T20:44:19.552Z,8.30
2022-09-27T20:46:47.795Z,8.30
2022-09-27T20:49:17.670Z,8.30
2022-09-27T20:51:48.475Z,8.30
2022-09-27T20:54:15.840Z,8.30
2022-09-27T20:56:46.161Z,8.20
2022-09-27T20:59:16.151Z,8.20
2022-09-27T21:01:46.131Z,8.20
2022-09-27T21:04:16.672Z,8.20
2022-09-27T21:06:44.902Z,8.20
2022-09-27T21:09:18.319Z,8.10
2022-09-27T21:11:47.305Z,8.10
2022-09-27T21:14:14.611Z,8.10
2022-09-27T21:16:42.061Z,8.00
2022-09-27T21:19:10.113Z,8.00
2022-09-27T21:21:37.445Z,8.00
2022-09-27T21:24:05.000Z,8.00
2022-09-27T21:26:33.590Z,8.00
2022-09-27T21:29:05.184Z,8.00
2022-09-27T21:31:33.174Z,8.00
2022-09-27T21:34:03.334Z,8.10
2022-09-27T21:36:36.160Z,8.10
2022-09-27T21:39:08.635Z,8.10
2022-09-27T21:41:36.760Z,8.10
2022-09-27T21:44:05.695Z,8.00
2022-09-27T21:46:33.197Z,7.90
2022-09-27T21:49:04.953Z,7.80
2022-09-27T21:51:36.731Z,7.70
2022-09-27T21:54:07.152Z,7.70
2022-09-27T21:56:37.480Z,7.60
2022-09-27T21:59:06.063Z,7.50
2022-09-27T22:05:47.430Z,7.40
2022-09-27T22:08:15.729Z,7.40
2022-09-27T22:10:44.389Z,7.30
2022-09-27T22:13:12.696Z,7.20
2022-09-27T22:15:40.205Z,7.10
2022-09-27T22:18:07.530Z,7.10
2022-09-27T22:20:34.820Z,7.20
2022-09-27T22:23:02.124Z,7.20
2022-09-27T22:25:30.256Z,7.20
2022-09-27T22:27:57.728Z,7.30
2022-09-27T22:30:25.419Z,7.30
2022-09-27T22:32:52.853Z,7.40
2022-09-27T22:35:21.777Z,7.40
2022-09-27T22:37:49.147Z,7.40
2022-09-27T22:40:16.567Z,7.40
2022-09-27T22:42:43.851Z,7.40
2022-09-27T22:45:11.220Z,7.40
2022-09-27T22:47:39.920Z,7.50
2022-09-27T22:50:07.431Z,7.40
2022-09-27T22:52:34.852Z,7.30
2022-09-27T22:55:02.130Z,7.30
2022-09-27T22:57:29.405Z,7.20
2022-09-27T22:59:56.652Z,7.20
2022-09-27T23:02:23.928Z,7.30
2022-09-27T23:04:51.731Z,7.30
2022-09-27T23:07:19.006Z,7.40
2022-09-27T23:09:46.782Z,7.40
2022-09-27T23:12:14.018Z,7.40
2022-09-27T23:14:42.689Z,7.50
2022-09-27T23:17:10.106Z,7.50
2022-09-27T23:19:38.027Z,7.50
2022-09-27T23:22:05.317Z,7.50
2022-09-27T23:24:32.546Z,7.60
2022-09-27T23:27:18.106Z,7.60
2022-09-27T23:29:46.006Z,7.50
2022-09-27T23:32:13.294Z,7.40
2022-09-27T23:34:41.151Z,7.40
2022-09-27T23:37:08.489Z,7.40
2022-09-27T23:39:35.704Z,7.50
2022-09-27T23:42:03.252Z,7.50
2022-09-27T23:44:31.253Z,7.60
2022-09-27T23:47:00.432Z,7.50
2022-09-27T23:49:28.459Z,7.40
2022-09-27T23:51:55.801Z,7.30
2022-09-27T23:54:23.096Z,7.40
2022-09-27T23:56:50.405Z,7.30
2022-09-27T23:59:17.821Z,7.30
